Hidden Valley, PA (15502)

6:52 PM EDT on July 03, 2015 (GMT -0400)
Somerset Twp 3 | | Change Station
CLOSE
Current Station
Personal Weather Station
Location: Somerset, PA
Elevation: 2241 ft
Nearby Weather Stations

Elev 2241 ft 40.02 °N, 79.10 °W | Updated 17 seconds ago

Overcast
Overcast
66.4 °F
Feels Like 66.4 °F
N
1.5
Wind Variable Wind from SE
Gusts 4.5 mph

Today
High -- | Low -- °F
--% Chance of Precip.
Yesterday
High -- | Low -- °F
Precip. -- in
5:52 AM 8:48 PM
Waning Gibbous, 95% visible
Pressure 29.97 in
Visibility 8.0 miles
Clouds Mostly Cloudy 2400 ft
Mostly Cloudy 8000 ft
Dew Point 64 °F
Humidity 92%
Rainfall 0.00 in
Snow Depth Not available.
UV 1 out of 12
Pollen 3.00 out of 12
Air Quality Not available.
Flu Activity Not available.
SPECI KJST 032211Z AUTO 14008KT 8SM BKN024 BKN080 20/15 A2997 RMK AO2 T02000150

More Conditions Fewer Conditions

Pressure 29.97 in
Visibility 8.0 miles
Clouds Mostly Cloudy 2400 ft
Mostly Cloudy 8000 ft
Dew Point 64 °F
Humidity 92%
Rainfall 0.00 in
Snow Depth Not available.
UV 1 out of 12
Pollen 3.00 out of 12
Air Quality Not available.
Flu Activity Not available.
SPECI KJST 032211Z AUTO 14008KT 8SM BKN024 BKN080 20/15 A2997 RMK AO2 T02000150

More Conditions Fewer Conditions

Nowcast | as of 4:29 PM EDT on July 3, 2015

A few showers will be across south central Pennsylvania through 730 PM. Most of the showers will be south of a Johnstown...Chambersburg...York line. However...a few light showers may get as far north as Route 22 by sunset. The showers are moving north at 15 mph.

×

10-Day Weather Forecast

×

Almanac

Astronomy

Jul. 03, 2015 Rise Set
Actual Time
Civil Twilight
Nautical Twilight
Astronomical Twilight
Moon
Length of Visible Light
Length of Day
Tomorrow will be .
, % of the Moon is Illuminated

Today's Extremes

State Highs State Lows

Community

WunderPhotos

Upload Photos

1,834,807 photos uploaded!

WunderBlogs® & News

Nearby

Air Quality

  Air Quality AQ Index Pollutant
Not available.

Snow Depth

Station Depth Elevation

Earthquake Activity

City Distance Mag. Time & Date
Minimum magnitude displayed is 2.5.

Coastal Water Temperatures

Place Temperature

Stations

Nearby Weather Stations

Station Location Temp. Windchill Dew Point Humidity Wind Precip. Elev Updated Type